createdAt,value
2018-05-29T00:01:21.266Z,69.56
2018-05-29T00:03:48.742Z,69.32
2018-05-29T00:06:16.249Z,70.03
2018-05-29T00:08:43.755Z,69.70
2018-05-29T00:11:11.273Z,68.54
2018-05-29T00:13:38.759Z,70.34
2018-05-29T00:16:06.253Z,70.91
2018-05-29T00:18:33.767Z,71.47
2018-05-29T00:21:01.402Z,71.73
2018-05-29T00:23:28.925Z,71.13
2018-05-29T00:25:56.398Z,71.62
2018-05-29T00:28:23.866Z,72.00
2018-05-29T00:30:51.392Z,71.98
2018-05-29T00:33:18.876Z,72.85
2018-05-29T00:35:46.395Z,73.21
2018-05-29T00:38:13.946Z,72.52
2018-05-29T00:40:41.553Z,71.92
2018-05-29T00:43:09.054Z,73.09
2018-05-29T00:45:36.659Z,72.45
2018-05-29T00:48:04.177Z,71.61
2018-05-29T00:50:31.653Z,72.33
2018-05-29T00:52:59.149Z,71.95
2018-05-29T00:55:37.494Z,72.23
2018-05-29T00:58:05.000Z,72.12
2018-05-29T01:00:32.504Z,72.37
2018-05-29T01:03:00.036Z,71.52
2018-05-29T01:05:27.531Z,72.47
2018-05-29T01:07:55.054Z,71.56
2018-05-29T01:10:22.552Z,71.52
2018-05-29T01:12:50.096Z,71.60
2018-05-29T01:15:17.609Z,73.07
2018-05-29T01:17:45.135Z,72.29
2018-05-29T01:20:12.624Z,72.01
2018-05-29T01:22:40.164Z,71.41
2018-05-29T01:25:07.663Z,72.96
2018-05-29T01:27:35.148Z,72.60
2018-05-29T01:30:02.681Z,72.79
2018-05-29T01:32:30.181Z,73.19
2018-05-29T01:34:57.704Z,72.58
2018-05-29T01:37:25.230Z,72.85
2018-05-29T01:39:52.705Z,72.00
2018-05-29T01:42:21.153Z,72.62
2018-05-29T01:44:48.656Z,72.59
2018-05-29T01:47:16.184Z,72.50
2018-05-29T01:49:43.702Z,72.52
2018-05-29T01:52:11.220Z,73.02
2018-05-29T01:54:38.838Z,73.10
2018-05-29T01:57:06.325Z,72.52
2018-05-29T01:59:33.839Z,73.13
2018-05-29T02:02:01.389Z,72.88
2018-05-29T02:04:28.967Z,73.23
2018-05-29T02:06:56.458Z,72.78
2018-05-29T02:09:23.945Z,73.26
2018-05-29T02:11:51.479Z,73.19
2018-05-29T02:14:18.990Z,73.04
2018-05-29T02:16:46.521Z,73.61
2018-05-29T02:19:14.007Z,73.28
2018-05-29T02:21:41.501Z,73.38
2018-05-29T02:24:09.193Z,72.99
2018-05-29T02:26:36.688Z,73.71
2018-05-29T02:29:04.214Z,73.41
2018-05-29T02:31:31.726Z,73.43
2018-05-29T02:33:59.243Z,73.77
2018-05-29T02:36:26.751Z,73.32
2018-05-29T02:38:54.260Z,73.58
2018-05-29T02:41:21.769Z,73.65
2018-05-29T02:43:49.306Z,73.49
2018-05-29T02:46:16.812Z,73.41
2018-05-29T02:48:44.323Z,73.98
2018-05-29T02:51:11.862Z,74.07
2018-05-29T02:53:39.363Z,73.73
2018-05-29T02:56:06.913Z,73.55
2018-05-29T02:58:34.451Z,73.36
2018-05-29T03:01:01.941Z,73.36
2018-05-29T03:03:29.450Z,73.51
2018-05-29T03:05:56.936Z,73.68
2018-05-29T03:08:24.469Z,73.61
2018-05-29T03:10:51.967Z,73.43
2018-05-29T03:13:19.513Z,73.42
2018-05-29T03:15:46.982Z,73.22
2018-05-29T03:18:14.463Z,72.26
2018-05-29T03:20:41.996Z,71.47
2018-05-29T03:23:09.497Z,70.95
2018-05-29T03:25:37.013Z,72.15
2018-05-29T03:28:04.513Z,71.05
2018-05-29T03:30:32.010Z,72.24
2018-05-29T03:32:59.551Z,72.61
2018-05-29T03:35:27.081Z,72.91
2018-05-29T03:37:54.612Z,73.33
2018-05-29T03:40:22.135Z,73.21
2018-05-29T03:42:49.641Z,73.92
2018-05-29T03:45:17.152Z,73.15
2018-05-29T03:47:44.649Z,71.22
2018-05-29T03:50:12.169Z,70.94
2018-05-29T03:52:39.659Z,72.20
2018-05-29T03:55:07.168Z,72.84
2018-05-29T03:57:34.649Z,73.06
2018-05-29T04:00:03.023Z,67.04
2018-05-29T04:02:30.656Z,64.27
2018-05-29T04:05:02.818Z,63.63
2018-05-29T04:07:30.348Z,61.06
2018-05-29T04:09:57.831Z,59.55
2018-05-29T04:12:25.300Z,59.27
2018-05-29T04:14:52.813Z,59.56
2018-05-29T04:17:20.283Z,58.99
2018-05-29T04:19:47.755Z,59.81
2018-05-29T04:22:15.281Z,63.96
2018-05-29T04:24:42.892Z,63.12
2018-05-29T04:27:10.455Z,67.75
2018-05-29T04:29:37.954Z,69.49
2018-05-29T04:32:05.459Z,70.24
2018-05-29T04:34:33.040Z,71.23
2018-05-29T04:37:00.577Z,73.03
2018-05-29T04:39:28.105Z,71.45
2018-05-29T04:41:55.631Z,70.61
2018-05-29T04:44:23.104Z,71.50
2018-05-29T04:46:50.721Z,70.90
2018-05-29T04:49:18.218Z,71.24
2018-05-29T04:51:45.719Z,69.31
2018-05-29T04:54:13.202Z,70.27
2018-05-29T04:56:40.743Z,70.38
2018-05-29T04:59:08.265Z,69.58
2018-05-29T05:01:35.752Z,70.06
2018-05-29T05:04:03.263Z,71.36
2018-05-29T05:06:30.787Z,70.64
2018-05-29T05:08:58.321Z,72.47
2018-05-29T05:11:25.780Z,71.58
2018-05-29T05:13:53.343Z,71.33
2018-05-29T05:16:20.820Z,70.93
2018-05-29T05:18:48.914Z,70.91
2018-05-29T05:21:17.067Z,69.70
2018-05-29T05:23:44.685Z,69.98
2018-05-29T05:26:12.165Z,69.36
2018-05-29T05:28:39.667Z,69.36
2018-05-29T05:31:07.179Z,69.01
2018-05-29T05:33:34.646Z,68.58
2018-05-29T05:36:02.176Z,69.09
2018-05-29T05:38:29.673Z,68.70
2018-05-29T05:40:57.184Z,67.14
2018-05-29T05:43:24.672Z,67.87
2018-05-29T05:45:52.200Z,68.11
2018-05-29T05:48:19.705Z,68.51
2018-05-29T05:50:47.608Z,68.60
2018-05-29T05:53:15.108Z,67.57
2018-05-29T05:55:42.728Z,67.47
2018-05-29T05:58:10.202Z,67.10
2018-05-29T06:00:37.719Z,66.73
2018-05-29T06:03:05.193Z,67.31
2018-05-29T06:05:32.782Z,67.18
2018-05-29T06:08:00.299Z,67.09
2018-05-29T06:10:27.767Z,67.56
2018-05-29T06:12:55.278Z,67.76
2018-05-29T06:15:22.870Z,69.29
2018-05-29T06:17:50.366Z,68.28
2018-05-29T06:20:17.901Z,68.04
2018-05-29T06:22:45.422Z,68.35
2018-05-29T06:25:12.934Z,68.01
2018-05-29T06:27:40.447Z,66.30
2018-05-29T06:30:07.945Z,67.15
2018-05-29T06:32:35.475Z,67.15
2018-05-29T06:35:02.999Z,66.45
2018-05-29T06:37:30.810Z,67.77
2018-05-29T06:39:58.320Z,65.82
2018-05-29T06:42:25.815Z,66.82
2018-05-29T06:44:53.383Z,67.92
2018-05-29T06:47:20.872Z,66.55
2018-05-29T06:49:48.389Z,66.57
2018-05-29T06:52:15.883Z,65.58
2018-05-29T06:54:43.424Z,64.76
2018-05-29T06:57:10.925Z,64.48
2018-05-29T06:59:38.482Z,64.66
2018-05-29T07:02:06.064Z,65.78
2018-05-29T07:04:33.554Z,66.12
2018-05-29T07:07:01.091Z,64.73
2018-05-29T07:09:30.404Z,65.15
2018-05-29T07:11:57.914Z,64.99
2018-05-29T07:14:25.447Z,64.33
2018-05-29T07:16:52.958Z,64.48
2018-05-29T07:19:20.473Z,64.50
2018-05-29T07:21:47.995Z,62.89
2018-05-29T07:24:15.491Z,63.45
2018-05-29T07:26:42.992Z,62.85
2018-05-29T07:29:10.493Z,61.90
2018-05-29T07:31:38.000Z,61.50
2018-05-29T07:34:05.508Z,61.27
2018-05-29T07:36:32.975Z,61.58
2018-05-29T07:39:00.546Z,59.54
2018-05-29T07:41:28.028Z,59.98
2018-05-29T07:43:55.619Z,60.87
2018-05-29T07:46:23.106Z,58.88
2018-05-29T07:48:50.614Z,61.37
2018-05-29T07:51:18.099Z,61.97
2018-05-29T07:53:45.602Z,59.10
2018-05-29T07:56:13.120Z,60.40
2018-05-29T07:58:40.607Z,60.15
2018-05-29T08:01:08.135Z,60.26
2018-05-29T08:03:35.709Z,59.89
2018-05-29T08:06:03.207Z,59.24
2018-05-29T08:08:30.715Z,59.05
2018-05-29T08:10:58.212Z,58.46
2018-05-29T08:13:25.823Z,59.30
2018-05-29T08:15:53.309Z,57.97
2018-05-29T08:18:20.789Z,57.61
2018-05-29T08:20:48.317Z,56.69
2018-05-29T08:23:15.889Z,56.74
2018-05-29T08:25:43.405Z,57.30
2018-05-29T08:28:11.072Z,56.53
2018-05-29T08:30:38.572Z,56.39
2018-05-29T08:33:06.101Z,55.36
2018-05-29T08:35:34.308Z,57.30
2018-05-29T08:38:01.849Z,55.22
2018-05-29T08:40:29.413Z,53.56
2018-05-29T08:42:56.930Z,54.25
2018-05-29T08:45:24.410Z,54.49
2018-05-29T08:47:51.942Z,54.55
2018-05-29T08:50:19.521Z,55.53
2018-05-29T08:52:47.036Z,55.20
2018-05-29T08:55:14.565Z,53.80
2018-05-29T08:57:42.036Z,55.01
2018-05-29T09:00:09.583Z,53.06
2018-05-29T09:02:37.090Z,54.09
2018-05-29T09:05:04.632Z,52.52
2018-05-29T09:07:32.154Z,52.19
2018-05-29T09:09:59.650Z,52.71
2018-05-29T09:12:27.177Z,52.34
2018-05-29T09:14:55.276Z,54.17
2018-05-29T09:17:23.102Z,50.67
2018-05-29T09:19:50.587Z,51.42
2018-05-29T09:22:18.081Z,50.60
2018-05-29T09:24:45.581Z,51.65
2018-05-29T09:27:13.119Z,49.07
2018-05-29T09:29:40.707Z,50.46
2018-05-29T09:32:08.177Z,50.66
2018-05-29T09:34:35.672Z,50.12
2018-05-29T09:37:03.214Z,50.99
2018-05-29T09:39:30.745Z,46.21
2018-05-29T09:41:58.268Z,49.12
2018-05-29T09:44:25.791Z,49.59
2018-05-29T09:46:53.332Z,47.73
2018-05-29T09:49:20.848Z,48.21
2018-05-29T09:51:48.363Z,48.25
2018-05-29T09:54:15.860Z,47.01
2018-05-29T09:56:43.437Z,46.99
2018-05-29T09:59:10.953Z,46.23
2018-05-29T10:01:38.451Z,46.82
2018-05-29T10:04:05.977Z,46.20
2018-05-29T10:06:33.447Z,45.56
2018-05-29T10:09:00.952Z,45.17
2018-05-29T10:11:28.425Z,44.85
2018-05-29T10:13:55.911Z,45.07
2018-05-29T10:16:23.407Z,43.81
2018-05-29T10:18:50.950Z,42.91
2018-05-29T10:21:18.464Z,42.77
2018-05-29T10:23:45.956Z,43.75
2018-05-29T10:26:13.504Z,42.63
2018-05-29T10:28:40.998Z,43.63
2018-05-29T10:31:08.532Z,42.60
2018-05-29T10:33:36.036Z,42.99
2018-05-29T10:36:03.581Z,42.81
2018-05-29T10:38:31.125Z,43.24
2018-05-29T10:40:58.617Z,41.92
2018-05-29T10:43:26.144Z,42.67
2018-05-29T10:45:53.656Z,41.98
2018-05-29T10:48:21.187Z,41.54
2018-05-29T10:50:48.681Z,42.50
2018-05-29T10:53:16.173Z,40.61
2018-05-29T10:55:43.733Z,41.40
2018-05-29T10:58:11.262Z,41.75
2018-05-29T11:00:38.759Z,42.45
2018-05-29T11:03:06.240Z,41.13
2018-05-29T11:05:33.739Z,40.82
2018-05-29T11:08:01.212Z,40.02
2018-05-29T11:10:28.709Z,39.71
2018-05-29T11:12:56.221Z,39.65
2018-05-29T11:15:24.588Z,40.59
2018-05-29T11:17:52.113Z,40.73
2018-05-29T11:20:19.580Z,39.64
2018-05-29T11:22:47.188Z,40.10
2018-05-29T11:25:14.943Z,40.72
2018-05-29T11:27:42.602Z,39.74
2018-05-29T11:30:10.098Z,41.41
2018-05-29T11:32:37.700Z,39.47
2018-05-29T11:35:05.215Z,39.94
2018-05-29T11:37:32.748Z,38.29
2018-05-29T11:40:00.232Z,40.02
2018-05-29T11:42:27.781Z,39.60
2018-05-29T11:44:55.265Z,38.12
2018-05-29T11:47:22.779Z,38.53
2018-05-29T11:49:50.300Z,37.95
2018-05-29T11:52:17.824Z,38.79
2018-05-29T11:54:45.382Z,37.67
2018-05-29T11:57:12.879Z,36.78
2018-05-29T11:59:40.394Z,36.11
2018-05-29T12:02:08.240Z,37.14
2018-05-29T12:04:35.728Z,37.45
2018-05-29T12:07:03.247Z,37.24
2018-05-29T12:09:30.892Z,36.72
2018-05-29T12:12:10.071Z,35.87
2018-05-29T12:14:37.572Z,37.07
2018-05-29T12:17:05.052Z,34.40
2018-05-29T12:19:32.591Z,33.22
2018-05-29T12:22:00.127Z,33.62
2018-05-29T12:24:27.611Z,33.63
2018-05-29T12:26:55.131Z,34.90
2018-05-29T12:29:22.622Z,34.79
2018-05-29T12:31:50.224Z,34.97
2018-05-29T12:34:17.712Z,34.37
2018-05-29T12:36:45.217Z,35.75
2018-05-29T12:39:12.750Z,34.71
2018-05-29T12:41:40.299Z,32.96
2018-05-29T12:44:07.772Z,34.37
2018-05-29T12:46:35.311Z,34.79
2018-05-29T12:49:02.845Z,33.82
2018-05-29T12:51:30.322Z,33.66
2018-05-29T12:53:57.817Z,33.67
2018-05-29T12:56:25.293Z,33.27
2018-05-29T12:58:52.893Z,32.25
2018-05-29T13:01:20.389Z,32.79
2018-05-29T13:03:47.907Z,32.92
2018-05-29T13:06:15.412Z,32.62
2018-05-29T13:08:42.945Z,31.19
2018-05-29T13:11:10.501Z,31.95
2018-05-29T13:13:37.966Z,32.31
2018-05-29T13:16:05.521Z,31.06
2018-05-29T13:18:33.014Z,29.71
2018-05-29T13:21:00.513Z,29.62
2018-05-29T13:23:28.018Z,29.96
2018-05-29T13:25:55.481Z,30.35
2018-05-29T13:28:23.093Z,28.97
2018-05-29T13:30:50.651Z,26.82
2018-05-29T13:33:18.176Z,27.75
2018-05-29T13:35:45.657Z,26.68
2018-05-29T13:38:13.159Z,27.20
2018-05-29T13:40:40.857Z,28.08
2018-05-29T13:43:08.337Z,27.58
2018-05-29T13:45:35.830Z,27.04
2018-05-29T13:48:03.464Z,29.53
2018-05-29T13:50:30.964Z,27.46
2018-05-29T13:52:58.492Z,27.71
2018-05-29T13:55:26.004Z,27.34
2018-05-29T13:57:53.537Z,27.02
2018-05-29T14:00:21.023Z,27.97
2018-05-29T14:02:48.560Z,28.70
2018-05-29T14:05:16.086Z,27.17
2018-05-29T14:07:43.574Z,27.07
2018-05-29T14:10:11.091Z,27.99
2018-05-29T14:12:38.682Z,26.62
2018-05-29T14:15:06.259Z,27.61
2018-05-29T14:17:33.779Z,27.87
2018-05-29T14:20:01.284Z,25.98
2018-05-29T14:22:28.919Z,28.39
2018-05-29T14:24:56.395Z,29.02
2018-05-29T14:27:23.917Z,27.68
2018-05-29T14:29:51.500Z,28.26
2018-05-29T14:32:19.313Z,27.80
2018-05-29T14:34:46.858Z,28.85
2018-05-29T14:37:14.356Z,26.67
2018-05-29T14:39:41.986Z,26.43
2018-05-29T14:42:09.485Z,26.66
2018-05-29T14:44:36.991Z,25.85
2018-05-29T14:47:04.524Z,25.18
2018-05-29T14:49:32.082Z,26.75
2018-05-29T14:51:59.558Z,25.89
2018-05-29T14:54:27.068Z,26.02
2018-05-29T14:56:54.586Z,26.83
2018-05-29T14:59:22.143Z,26.37
2018-05-29T15:01:49.670Z,26.56
2018-05-29T15:04:17.143Z,25.78
2018-05-29T15:06:44.646Z,25.92
2018-05-29T15:09:12.129Z,25.44
2018-05-29T15:11:39.630Z,23.27
2018-05-29T15:14:07.101Z,25.78
2018-05-29T15:16:34.668Z,25.47
2018-05-29T15:19:02.152Z,25.46
2018-05-29T15:21:29.688Z,26.50
2018-05-29T15:23:57.199Z,25.92
2018-05-29T15:26:24.780Z,25.61
2018-05-29T15:28:52.270Z,25.25
2018-05-29T15:31:19.755Z,26.12
2018-05-29T15:33:47.273Z,25.35
2018-05-29T15:36:14.827Z,25.25
2018-05-29T15:38:42.339Z,25.29
2018-05-29T15:41:09.824Z,25.17
2018-05-29T15:43:38.044Z,25.03
2018-05-29T15:46:05.546Z,23.67
2018-05-29T15:51:06.815Z,24.02
2018-05-29T15:53:34.306Z,24.33
2018-05-29T15:56:01.833Z,23.70
2018-05-29T15:58:29.382Z,23.86
2018-05-29T16:00:56.896Z,23.79
2018-05-29T16:03:24.391Z,24.21
2018-05-29T16:05:52.031Z,23.14
2018-05-29T16:08:19.496Z,23.12
2018-05-29T16:10:47.463Z,22.57
2018-05-29T16:13:14.953Z,23.21
2018-05-29T16:15:42.420Z,23.02
2018-05-29T16:18:10.115Z,23.10
2018-05-29T16:20:37.585Z,22.80
2018-05-29T16:23:05.096Z,22.38
2018-05-29T16:25:32.581Z,22.76
2018-05-29T16:28:00.065Z,23.04
2018-05-29T16:30:27.591Z,22.31
2018-05-29T16:32:55.086Z,23.22
2018-05-29T16:35:22.609Z,22.62
2018-05-29T16:37:50.099Z,23.13
2018-05-29T16:40:17.581Z,22.17
2018-05-29T16:42:45.101Z,22.88
2018-05-29T16:45:13.231Z,23.38
2018-05-29T16:47:40.752Z,24.04
2018-05-29T16:50:08.246Z,23.79
2018-05-29T16:52:35.819Z,23.62
2018-05-29T16:55:03.414Z,24.16
2018-05-29T16:57:31.382Z,23.13
2018-05-29T16:59:58.866Z,23.13
2018-05-29T17:02:26.357Z,23.98
2018-05-29T17:04:53.917Z,25.00
2018-05-29T17:07:21.396Z,23.23
2018-05-29T17:09:48.902Z,23.69
2018-05-29T17:12:16.369Z,23.64
2018-05-29T17:14:43.834Z,24.00
2018-05-29T17:17:11.435Z,23.73
2018-05-29T17:19:38.925Z,23.72
2018-05-29T17:22:06.431Z,24.37
2018-05-29T17:24:34.000Z,24.10
2018-05-29T17:27:01.997Z,23.57
2018-05-29T17:29:29.543Z,23.37
2018-05-29T17:31:57.061Z,24.58
2018-05-29T17:34:24.538Z,24.17
2018-05-29T17:36:52.002Z,24.61
2018-05-29T17:39:19.499Z,24.60
2018-05-29T17:41:46.996Z,24.52
2018-05-29T17:44:14.607Z,24.34
2018-05-29T17:46:42.074Z,25.16
2018-05-29T17:49:09.583Z,24.50
2018-05-29T17:51:37.093Z,25.27
2018-05-29T17:54:04.604Z,24.79
2018-05-29T17:56:32.130Z,25.91
2018-05-29T17:58:59.620Z,25.75
2018-05-29T18:01:27.216Z,25.34
2018-05-29T18:03:54.683Z,26.17
2018-05-29T18:06:22.835Z,25.67
2018-05-29T18:08:50.322Z,25.96
2018-05-29T18:11:17.795Z,26.36
2018-05-29T18:13:45.287Z,26.03
2018-05-29T18:16:12.839Z,26.18
2018-05-29T18:18:40.347Z,27.08
2018-05-29T18:21:07.829Z,26.86
2018-05-29T18:23:35.346Z,26.91
2018-05-29T18:26:02.830Z,26.95
2018-05-29T18:28:30.448Z,26.84
2018-05-29T18:30:57.929Z,27.17
2018-05-29T18:33:25.401Z,27.07
2018-05-29T18:35:52.960Z,27.46
2018-05-29T18:38:20.432Z,27.17
2018-05-29T18:40:47.929Z,26.97
2018-05-29T18:43:15.460Z,27.80
2018-05-29T18:45:43.024Z,28.10
2018-05-29T18:48:10.524Z,28.65
2018-05-29T18:50:38.054Z,28.86
2018-05-29T18:53:05.591Z,28.85
2018-05-29T18:55:33.147Z,28.98
2018-05-29T18:58:00.681Z,28.57
2018-05-29T19:00:28.175Z,28.67
2018-05-29T19:02:55.697Z,29.25
2018-05-29T19:05:23.187Z,29.34
2018-05-29T19:07:50.723Z,29.13
2018-05-29T19:10:18.217Z,29.72
2018-05-29T19:12:45.731Z,29.51
2018-05-29T19:15:13.288Z,29.49
2018-05-29T19:17:40.774Z,29.37
2018-05-29T19:20:08.325Z,29.80
2018-05-29T19:22:35.810Z,29.66
2018-05-29T19:25:03.376Z,29.59
2018-05-29T19:27:30.853Z,29.91
2018-05-29T19:29:58.396Z,29.99
2018-05-29T19:32:25.893Z,30.79
2018-05-29T19:34:53.464Z,30.83
2018-05-29T19:37:20.969Z,31.41
2018-05-29T19:39:48.484Z,31.75
2018-05-29T19:42:15.976Z,31.71
2018-05-29T19:44:43.480Z,31.89
2018-05-29T19:47:10.981Z,32.31
2018-05-29T19:49:38.467Z,32.75
2018-05-29T19:52:05.961Z,32.70
2018-05-29T19:54:33.430Z,32.69
2018-05-29T19:57:00.941Z,33.06
2018-05-29T19:59:28.530Z,33.38
2018-05-29T20:01:55.973Z,33.11
2018-05-29T20:04:23.468Z,33.58
2018-05-29T20:06:51.028Z,33.70
2018-05-29T20:09:18.475Z,33.86
2018-05-29T20:11:45.966Z,34.07
2018-05-29T20:14:13.472Z,34.09
2018-05-29T20:16:41.046Z,34.47
2018-05-29T20:19:08.561Z,34.60
2018-05-29T20:21:36.111Z,34.21
2018-05-29T20:24:03.647Z,34.23
2018-05-29T20:26:31.146Z,34.32
2018-05-29T20:28:58.673Z,34.69
2018-05-29T20:31:26.219Z,35.01
2018-05-29T20:33:53.716Z,34.92
2018-05-29T20:36:22.259Z,34.74
2018-05-29T20:38:49.759Z,34.83
2018-05-29T20:41:17.239Z,35.06
2018-05-29T20:43:44.774Z,35.08
2018-05-29T20:46:12.279Z,34.62
2018-05-29T20:48:39.784Z,35.09
2018-05-29T20:51:07.290Z,35.43
2018-05-29T20:53:34.790Z,35.60
2018-05-29T20:56:02.355Z,35.24
2018-05-29T20:58:29.845Z,35.12
2018-05-29T21:00:57.346Z,35.08
2018-05-29T21:03:24.846Z,35.48
2018-05-29T21:05:52.358Z,35.18
2018-05-29T21:08:19.833Z,35.12
2018-05-29T21:10:47.354Z,35.43
2018-05-29T21:13:14.849Z,35.13
2018-05-29T21:15:42.371Z,35.23
2018-05-29T21:18:09.872Z,36.86
2018-05-29T21:20:37.414Z,36.42
2018-05-29T21:23:04.970Z,36.93
2018-05-29T21:25:32.452Z,37.45
2018-05-29T21:27:59.943Z,37.63
2018-05-29T21:30:27.516Z,36.92
2018-05-29T21:32:55.084Z,36.55
2018-05-29T21:35:22.559Z,36.04
2018-05-29T21:37:50.054Z,36.26
2018-05-29T21:40:17.578Z,36.30
2018-05-29T21:42:45.069Z,36.23
2018-05-29T21:45:12.582Z,36.68
2018-05-29T21:47:40.074Z,36.93
2018-05-29T21:50:07.596Z,37.97
2018-05-29T21:52:35.140Z,37.45
2018-05-29T21:55:02.611Z,38.38
2018-05-29T21:57:30.147Z,37.48
2018-05-29T21:59:57.703Z,37.87
2018-05-29T22:02:25.232Z,39.50
2018-05-29T22:04:52.747Z,39.70
2018-05-29T22:07:20.256Z,38.97
2018-05-29T22:09:47.747Z,38.67
2018-05-29T22:12:15.318Z,38.60
2018-05-29T22:14:42.889Z,39.01
2018-05-29T22:17:10.350Z,38.73
2018-05-29T22:19:37.896Z,38.70
2018-05-29T22:22:05.478Z,38.57
2018-05-29T22:24:32.945Z,38.78
2018-05-29T22:27:01.063Z,39.31
2018-05-29T22:29:28.557Z,39.13
2018-05-29T22:31:56.162Z,38.98
2018-05-29T22:34:23.632Z,39.44
2018-05-29T22:36:51.175Z,39.33
2018-05-29T22:39:18.658Z,39.70
2018-05-29T22:41:46.199Z,39.94
2018-05-29T22:44:13.681Z,40.36
2018-05-29T22:46:41.168Z,40.16
2018-05-29T22:49:08.645Z,39.95
2018-05-29T22:51:36.144Z,40.79
2018-05-29T22:54:03.668Z,40.35
2018-05-29T22:56:31.146Z,41.01
2018-05-29T22:58:58.687Z,40.57
2018-05-29T23:01:26.213Z,40.88
2018-05-29T23:03:53.719Z,40.95
2018-05-29T23:06:21.240Z,41.39
2018-05-29T23:08:48.764Z,41.53
2018-05-29T23:11:16.251Z,41.26
2018-05-29T23:13:43.754Z,41.47
2018-05-29T23:16:11.276Z,40.88
2018-05-29T23:18:38.800Z,41.27
2018-05-29T23:21:06.274Z,40.77
2018-05-29T23:23:33.791Z,40.85
2018-05-29T23:26:01.287Z,40.93
2018-05-29T23:28:28.779Z,40.64
2018-05-29T23:30:56.282Z,41.49
2018-05-29T23:33:23.767Z,41.10
2018-05-29T23:35:51.296Z,41.26
2018-05-29T23:38:18.795Z,40.63
2018-05-29T23:40:46.321Z,41.31
2018-05-29T23:43:13.836Z,41.37
2018-05-29T23:45:41.413Z,41.69
2018-05-29T23:48:08.889Z,41.89
2018-05-29T23:50:36.378Z,42.15
2018-05-29T23:53:03.868Z,41.83
2018-05-29T23:55:31.430Z,42.16
2018-05-29T23:57:58.902Z,42.13
